sensor_id;sensor_type;location;lat;lon;timestamp;P1;durP1;ratioP1;P2;durP2;ratioP2
19905;SDS011;10115;50.906;4.438;2023-06-05T00:00:04;4.63;;;4.27;;
19905;SDS011;10115;50.906;4.438;2023-06-05T00:02:32;4.80;;;4.40;;
19905;SDS011;10115;50.906;4.438;2023-06-05T00:04:57;4.67;;;4.27;;
19905;SDS011;10115;50.906;4.438;2023-06-05T00:07:23;4.90;;;4.43;;
19905;SDS011;10115;50.906;4.438;2023-06-05T00:09:49;5.00;;;4.60;;
19905;SDS011;10115;50.906;4.438;2023-06-05T00:12:15;5.13;;;4.60;;
19905;SDS011;10115;50.906;4.438;2023-06-05T00:14:42;5.60;;;4.90;;
19905;SDS011;10115;50.906;4.438;2023-06-05T00:17:08;4.77;;;4.37;;
19905;SDS011;10115;50.906;4.438;2023-06-05T00:19:34;8.57;;;4.27;;
19905;SDS011;10115;50.906;4.438;2023-06-05T00:22:00;4.63;;;4.33;;
19905;SDS011;10115;50.906;4.438;2023-06-05T00:24:26;4.87;;;4.37;;
19905;SDS011;10115;50.906;4.438;2023-06-05T00:26:51;8.00;;;4.80;;
19905;SDS011;10115;50.906;4.438;2023-06-05T00:29:19;4.30;;;4.00;;
19905;SDS011;10115;50.906;4.438;2023-06-05T00:31:45;6.03;;;4.80;;
19905;SDS011;10115;50.906;4.438;2023-06-05T00:34:12;4.70;;;4.40;;
19905;SDS011;10115;50.906;4.438;2023-06-05T00:36:38;7.10;;;4.40;;
19905;SDS011;10115;50.906;4.438;2023-06-05T00:39:06;4.87;;;4.57;;
19905;SDS011;10115;50.906;4.438;2023-06-05T00:41:31;5.03;;;4.57;;
19905;SDS011;10115;50.906;4.438;2023-06-05T00:43:57;5.27;;;4.70;;
19905;SDS011;10115;50.906;4.438;2023-06-05T00:46:23;5.07;;;4.57;;
19905;SDS011;10115;50.906;4.438;2023-06-05T00:48:50;5.67;;;5.13;;
19905;SDS011;10115;50.906;4.438;2023-06-05T00:51:16;4.23;;;4.03;;
19905;SDS011;10115;50.906;4.438;2023-06-05T00:53:42;7.20;;;4.83;;
19905;SDS011;10115;50.906;4.438;2023-06-05T00:56:10;7.57;;;4.97;;
19905;SDS011;10115;50.906;4.438;2023-06-05T00:58:36;4.87;;;4.47;;
19905;SDS011;10115;50.906;4.438;2023-06-05T01:01:02;4.57;;;4.27;;
19905;SDS011;10115;50.906;4.438;2023-06-05T01:03:30;5.00;;;4.70;;
19905;SDS011;10115;50.906;4.438;2023-06-05T01:05:59;4.60;;;4.30;;
19905;SDS011;10115;50.906;4.438;2023-06-05T01:08:29;5.83;;;5.17;;
19905;SDS011;10115;50.906;4.438;2023-06-05T01:11:03;5.37;;;4.93;;
19905;SDS011;10115;50.906;4.438;2023-06-05T01:13:39;6.00;;;4.83;;
19905;SDS011;10115;50.906;4.438;2023-06-05T01:16:11;4.80;;;4.50;;
19905;SDS011;10115;50.906;4.438;2023-06-05T01:18:37;5.43;;;4.93;;
19905;SDS011;10115;50.906;4.438;2023-06-05T01:21:10;5.40;;;5.10;;
19905;SDS011;10115;50.906;4.438;2023-06-05T01:23:39;5.97;;;4.63;;
19905;SDS011;10115;50.906;4.438;2023-06-05T01:26:09;5.27;;;4.83;;
19905;SDS011;10115;50.906;4.438;2023-06-05T01:28:47;5.27;;;4.97;;
19905;SDS011;10115;50.906;4.438;2023-06-05T01:31:15;5.47;;;5.07;;
19905;SDS011;10115;50.906;4.438;2023-06-05T01:33:55;8.13;;;4.97;;
19905;SDS011;10115;50.906;4.438;2023-06-05T01:36:26;5.27;;;4.87;;
19905;SDS011;10115;50.906;4.438;2023-06-05T01:38:54;5.73;;;5.30;;
19905;SDS011;10115;50.906;4.438;2023-06-05T01:41:21;4.80;;;4.50;;
19905;SDS011;10115;50.906;4.438;2023-06-05T01:43:47;5.63;;;5.23;;
19905;SDS011;10115;50.906;4.438;2023-06-05T01:46:16;5.10;;;4.80;;
19905;SDS011;10115;50.906;4.438;2023-06-05T01:48:43;6.73;;;5.47;;
19905;SDS011;10115;50.906;4.438;2023-06-05T01:51:10;7.47;;;4.90;;
19905;SDS011;10115;50.906;4.438;2023-06-05T01:53:35;5.50;;;5.00;;
19905;SDS011;10115;50.906;4.438;2023-06-05T01:56:01;5.53;;;5.10;;
19905;SDS011;10115;50.906;4.438;2023-06-05T01:58:28;5.80;;;4.97;;
19905;SDS011;10115;50.906;4.438;2023-06-05T02:00:54;6.07;;;5.63;;
19905;SDS011;10115;50.906;4.438;2023-06-05T02:03:22;5.63;;;5.20;;
19905;SDS011;10115;50.906;4.438;2023-06-05T02:05:48;7.47;;;5.57;;
19905;SDS011;10115;50.906;4.438;2023-06-05T02:08:14;6.43;;;5.43;;
19905;SDS011;10115;50.906;4.438;2023-06-05T02:10:45;6.93;;;5.13;;
19905;SDS011;10115;50.906;4.438;2023-06-05T02:13:11;5.87;;;5.37;;
19905;SDS011;10115;50.906;4.438;2023-06-05T02:15:38;5.27;;;4.87;;
19905;SDS011;10115;50.906;4.438;2023-06-05T02:18:03;6.10;;;5.20;;
19905;SDS011;10115;50.906;4.438;2023-06-05T02:20:29;5.77;;;5.00;;
19905;SDS011;10115;50.906;4.438;2023-06-05T02:22:56;5.77;;;5.37;;
19905;SDS011;10115;50.906;4.438;2023-06-05T02:25:22;5.27;;;4.97;;
19905;SDS011;10115;50.906;4.438;2023-06-05T02:27:52;5.90;;;5.33;;
19905;SDS011;10115;50.906;4.438;2023-06-05T02:30:18;5.50;;;5.00;;
19905;SDS011;10115;50.906;4.438;2023-06-05T02:32:45;5.80;;;5.23;;
19905;SDS011;10115;50.906;4.438;2023-06-05T02:35:11;7.73;;;5.27;;
19905;SDS011;10115;50.906;4.438;2023-06-05T02:37:38;6.07;;;5.67;;
19905;SDS011;10115;50.906;4.438;2023-06-05T02:40:12;5.93;;;5.53;;
19905;SDS011;10115;50.906;4.438;2023-06-05T02:42:38;5.97;;;5.57;;
19905;SDS011;10115;50.906;4.438;2023-06-05T02:45:04;5.47;;;5.17;;
19905;SDS011;10115;50.906;4.438;2023-06-05T02:47:30;6.07;;;5.57;;
19905;SDS011;10115;50.906;4.438;2023-06-05T02:49:57;5.90;;;5.50;;
19905;SDS011;10115;50.906;4.438;2023-06-05T02:52:22;5.67;;;5.23;;
19905;SDS011;10115;50.906;4.438;2023-06-05T02:54:49;5.77;;;5.33;;
19905;SDS011;10115;50.906;4.438;2023-06-05T02:57:15;7.23;;;6.43;;
19905;SDS011;10115;50.906;4.438;2023-06-05T02:59:42;8.73;;;5.50;;
19905;SDS011;10115;50.906;4.438;2023-06-05T03:02:08;5.60;;;5.20;;
19905;SDS011;10115;50.906;4.438;2023-06-05T03:04:34;5.67;;;5.27;;
19905;SDS011;10115;50.906;4.438;2023-06-05T03:07:00;6.40;;;5.90;;
19905;SDS011;10115;50.906;4.438;2023-06-05T03:09:29;5.87;;;5.47;;
19905;SDS011;10115;50.906;4.438;2023-06-05T03:11:55;5.43;;;5.13;;
19905;SDS011;10115;50.906;4.438;2023-06-05T03:14:22;5.50;;;5.10;;
19905;SDS011;10115;50.906;4.438;2023-06-05T03:16:47;6.33;;;5.90;;
19905;SDS011;10115;50.906;4.438;2023-06-05T03:19:13;6.43;;;5.80;;
19905;SDS011;10115;50.906;4.438;2023-06-05T03:21:39;5.87;;;5.47;;
19905;SDS011;10115;50.906;4.438;2023-06-05T03:24:08;6.87;;;6.10;;
19905;SDS011;10115;50.906;4.438;2023-06-05T03:26:35;5.57;;;5.10;;
19905;SDS011;10115;50.906;4.438;2023-06-05T03:29:01;5.40;;;5.10;;
19905;SDS011;10115;50.906;4.438;2023-06-05T03:31:27;7.17;;;5.80;;
19905;SDS011;10115;50.906;4.438;2023-06-05T03:33:53;6.17;;;5.70;;
19905;SDS011;10115;50.906;4.438;2023-06-05T03:36:18;6.03;;;5.60;;
19905;SDS011;10115;50.906;4.438;2023-06-05T03:38:44;5.97;;;5.57;;
19905;SDS011;10115;50.906;4.438;2023-06-05T03:41:10;5.87;;;5.50;;
19905;SDS011;10115;50.906;4.438;2023-06-05T03:43:36;5.90;;;5.40;;
19905;SDS011;10115;50.906;4.438;2023-06-05T03:46:02;6.10;;;5.70;;
19905;SDS011;10115;50.906;4.438;2023-06-05T03:48:28;5.50;;;5.20;;
19905;SDS011;10115;50.906;4.438;2023-06-05T03:50:54;5.83;;;5.33;;
19905;SDS011;10115;50.906;4.438;2023-06-05T03:53:21;6.03;;;5.63;;
19905;SDS011;10115;50.906;4.438;2023-06-05T03:55:48;6.50;;;5.90;;
19905;SDS011;10115;50.906;4.438;2023-06-05T03:58:14;6.40;;;5.80;;
19905;SDS011;10115;50.906;4.438;2023-06-05T04:00:45;6.37;;;5.87;;
19905;SDS011;10115;50.906;4.438;2023-06-05T04:03:14;6.57;;;6.03;;
19905;SDS011;10115;50.906;4.438;2023-06-05T04:05:40;6.20;;;5.70;;
19905;SDS011;10115;50.906;4.438;2023-06-05T04:08:06;7.90;;;5.73;;
19905;SDS011;10115;50.906;4.438;2023-06-05T04:10:34;10.20;;;6.40;;
19905;SDS011;10115;50.906;4.438;2023-06-05T04:13:00;6.17;;;5.77;;
19905;SDS011;10115;50.906;4.438;2023-06-05T04:15:28;6.03;;;5.57;;
19905;SDS011;10115;50.906;4.438;2023-06-05T04:17:54;6.80;;;6.40;;
19905;SDS011;10115;50.906;4.438;2023-06-05T04:20:20;6.80;;;6.17;;
19905;SDS011;10115;50.906;4.438;2023-06-05T04:22:46;6.20;;;5.80;;
19905;SDS011;10115;50.906;4.438;2023-06-05T04:25:12;6.83;;;6.33;;
19905;SDS011;10115;50.906;4.438;2023-06-05T04:27:38;6.03;;;5.63;;
19905;SDS011;10115;50.906;4.438;2023-06-05T04:30:06;6.37;;;5.87;;
19905;SDS011;10115;50.906;4.438;2023-06-05T04:32:33;9.43;;;6.67;;
19905;SDS011;10115;50.906;4.438;2023-06-05T04:35:02;8.53;;;5.97;;
19905;SDS011;10115;50.906;4.438;2023-06-05T04:37:32;5.87;;;5.40;;
19905;SDS011;10115;50.906;4.438;2023-06-05T04:39:58;6.00;;;5.57;;
19905;SDS011;10115;50.906;4.438;2023-06-05T04:42:24;6.70;;;6.10;;
19905;SDS011;10115;50.906;4.438;2023-06-05T04:44:57;5.60;;;5.10;;
19905;SDS011;10115;50.906;4.438;2023-06-05T04:47:26;6.10;;;5.70;;
19905;SDS011;10115;50.906;4.438;2023-06-05T04:49:53;6.43;;;5.83;;
19905;SDS011;10115;50.906;4.438;2023-06-05T04:52:19;6.23;;;5.83;;
19905;SDS011;10115;50.906;4.438;2023-06-05T04:54:46;12.83;;;7.13;;
19905;SDS011;10115;50.906;4.438;2023-06-05T04:57:12;6.60;;;6.10;;
19905;SDS011;10115;50.906;4.438;2023-06-05T04:59:37;6.03;;;5.53;;
19905;SDS011;10115;50.906;4.438;2023-06-05T05:02:03;6.33;;;5.80;;
19905;SDS011;10115;50.906;4.438;2023-06-05T05:04:29;6.50;;;5.90;;
19905;SDS011;10115;50.906;4.438;2023-06-05T05:06:55;6.43;;;5.87;;
19905;SDS011;10115;50.906;4.438;2023-06-05T05:09:26;6.07;;;5.60;;
19905;SDS011;10115;50.906;4.438;2023-06-05T05:11:57;10.40;;;6.30;;
19905;SDS011;10115;50.906;4.438;2023-06-05T05:14:26;6.50;;;5.90;;
19905;SDS011;10115;50.906;4.438;2023-06-05T05:16:53;7.03;;;6.33;;
19905;SDS011;10115;50.906;4.438;2023-06-05T05:19:20;6.57;;;6.00;;
19905;SDS011;10115;50.906;4.438;2023-06-05T05:21:47;7.47;;;6.20;;
19905;SDS011;10115;50.906;4.438;2023-06-05T05:24:13;6.13;;;5.73;;
19905;SDS011;10115;50.906;4.438;2023-06-05T05:26:39;6.00;;;5.60;;
19905;SDS011;10115;50.906;4.438;2023-06-05T05:29:05;7.80;;;6.33;;
19905;SDS011;10115;50.906;4.438;2023-06-05T05:31:31;7.53;;;6.93;;
19905;SDS011;10115;50.906;4.438;2023-06-05T05:33:57;5.97;;;5.47;;
19905;SDS011;10115;50.906;4.438;2023-06-05T05:36:23;6.77;;;6.17;;
19905;SDS011;10115;50.906;4.438;2023-06-05T05:38:50;6.67;;;6.17;;
19905;SDS011;10115;50.906;4.438;2023-06-05T05:41:16;7.03;;;6.40;;
19905;SDS011;10115;50.906;4.438;2023-06-05T05:43:41;7.83;;;7.10;;
19905;SDS011;10115;50.906;4.438;2023-06-05T05:46:07;7.23;;;6.53;;
19905;SDS011;10115;50.906;4.438;2023-06-05T05:48:36;6.50;;;6.00;;
19905;SDS011;10115;50.906;4.438;2023-06-05T05:51:03;9.27;;;7.10;;
19905;SDS011;10115;50.906;4.438;2023-06-05T05:53:30;6.30;;;5.80;;
19905;SDS011;10115;50.906;4.438;2023-06-05T05:55:56;9.13;;;6.47;;
19905;SDS011;10115;50.906;4.438;2023-06-05T05:58:21;7.33;;;6.67;;
19905;SDS011;10115;50.906;4.438;2023-06-05T06:00:47;6.77;;;6.20;;
19905;SDS011;10115;50.906;4.438;2023-06-05T06:03:13;6.90;;;6.30;;
19905;SDS011;10115;50.906;4.438;2023-06-05T06:05:39;9.57;;;6.77;;
19905;SDS011;10115;50.906;4.438;2023-06-05T06:08:06;11.67;;;6.43;;
19905;SDS011;10115;50.906;4.438;2023-06-05T06:10:32;6.83;;;6.23;;
19905;SDS011;10115;50.906;4.438;2023-06-05T06:12:58;6.77;;;6.20;;
19905;SDS011;10115;50.906;4.438;2023-06-05T06:15:24;7.43;;;5.83;;
19905;SDS011;10115;50.906;4.438;2023-06-05T06:17:50;6.67;;;5.97;;
19905;SDS011;10115;50.906;4.438;2023-06-05T06:20:16;6.20;;;5.70;;
19905;SDS011;10115;50.906;4.438;2023-06-05T06:22:42;8.33;;;6.47;;
19905;SDS011;10115;50.906;4.438;2023-06-05T06:25:09;6.53;;;5.97;;
19905;SDS011;10115;50.906;4.438;2023-06-05T06:27:36;6.80;;;6.17;;
19905;SDS011;10115;50.906;4.438;2023-06-05T06:30:02;7.30;;;5.90;;
19905;SDS011;10115;50.906;4.438;2023-06-05T06:32:29;6.30;;;5.73;;
19905;SDS011;10115;50.906;4.438;2023-06-05T06:34:55;7.20;;;6.50;;
19905;SDS011;10115;50.906;4.438;2023-06-05T06:37:21;8.33;;;6.83;;
19905;SDS011;10115;50.906;4.438;2023-06-05T06:39:47;7.87;;;6.97;;
19905;SDS011;10115;50.906;4.438;2023-06-05T06:42:14;6.37;;;5.77;;
19905;SDS011;10115;50.906;4.438;2023-06-05T06:44:40;7.20;;;5.93;;
19905;SDS011;10115;50.906;4.438;2023-06-05T06:47:06;8.03;;;6.30;;
19905;SDS011;10115;50.906;4.438;2023-06-05T06:49:33;7.00;;;6.30;;
19905;SDS011;10115;50.906;4.438;2023-06-05T06:52:00;6.60;;;6.00;;
19905;SDS011;10115;50.906;4.438;2023-06-05T06:54:26;7.70;;;6.17;;
19905;SDS011;10115;50.906;4.438;2023-06-05T06:56:54;7.73;;;5.73;;
19905;SDS011;10115;50.906;4.438;2023-06-05T06:59:23;6.33;;;5.73;;
19905;SDS011;10115;50.906;4.438;2023-06-05T07:04:54;8.37;;;6.40;;
19905;SDS011;10115;50.906;4.438;2023-06-05T07:07:20;7.20;;;6.07;;
19905;SDS011;10115;50.906;4.438;2023-06-05T07:09:47;5.83;;;5.33;;
19905;SDS011;10115;50.906;4.438;2023-06-05T07:12:15;8.47;;;5.97;;
19905;SDS011;10115;50.906;4.438;2023-06-05T07:14:42;8.93;;;6.17;;
19905;SDS011;10115;50.906;4.438;2023-06-05T07:17:07;7.87;;;5.90;;
19905;SDS011;10115;50.906;4.438;2023-06-05T07:19:34;6.73;;;6.07;;
19905;SDS011;10115;50.906;4.438;2023-06-05T07:22:03;8.37;;;6.60;;
19905;SDS011;10115;50.906;4.438;2023-06-05T07:24:30;12.17;;;6.27;;
19905;SDS011;10115;50.906;4.438;2023-06-05T07:26:59;7.13;;;6.43;;
19905;SDS011;10115;50.906;4.438;2023-06-05T07:29:26;6.00;;;5.53;;
19905;SDS011;10115;50.906;4.438;2023-06-05T07:31:52;9.07;;;6.37;;
19905;SDS011;10115;50.906;4.438;2023-06-05T07:34:20;7.97;;;6.63;;
19905;SDS011;10115;50.906;4.438;2023-06-05T07:36:47;6.50;;;6.00;;
19905;SDS011;10115;50.906;4.438;2023-06-05T07:39:15;6.50;;;6.00;;
19905;SDS011;10115;50.906;4.438;2023-06-05T07:41:42;9.00;;;7.10;;
19905;SDS011;10115;50.906;4.438;2023-06-05T07:44:12;8.10;;;5.90;;
19905;SDS011;10115;50.906;4.438;2023-06-05T07:46:39;7.47;;;6.27;;
19905;SDS011;10115;50.906;4.438;2023-06-05T07:49:06;10.17;;;6.63;;
19905;SDS011;10115;50.906;4.438;2023-06-05T07:51:32;7.57;;;6.77;;
19905;SDS011;10115;50.906;4.438;2023-06-05T07:54:04;7.67;;;6.70;;
19905;SDS011;10115;50.906;4.438;2023-06-05T07:56:31;6.90;;;6.20;;
19905;SDS011;10115;50.906;4.438;2023-06-05T07:58:58;6.63;;;6.10;;
19905;SDS011;10115;50.906;4.438;2023-06-05T08:01:31;6.47;;;5.97;;
19905;SDS011;10115;50.906;4.438;2023-06-05T08:04:01;8.27;;;7.23;;
19905;SDS011;10115;50.906;4.438;2023-06-05T08:06:35;6.70;;;6.10;;
19905;SDS011;10115;50.906;4.438;2023-06-05T08:09:03;6.07;;;5.57;;
19905;SDS011;10115;50.906;4.438;2023-06-05T08:11:29;11.80;;;6.40;;
19905;SDS011;10115;50.906;4.438;2023-06-05T08:13:55;7.90;;;6.20;;
19905;SDS011;10115;50.906;4.438;2023-06-05T08:16:21;7.43;;;6.67;;
19905;SDS011;10115;50.906;4.438;2023-06-05T08:18:47;12.40;;;6.80;;
19905;SDS011;10115;50.906;4.438;2023-06-05T08:21:13;7.00;;;6.23;;
19905;SDS011;10115;50.906;4.438;2023-06-05T08:23:38;6.63;;;6.03;;
19905;SDS011;10115;50.906;4.438;2023-06-05T08:26:04;9.23;;;6.73;;
19905;SDS011;10115;50.906;4.438;2023-06-05T08:28:37;6.00;;;5.40;;
19905;SDS011;10115;50.906;4.438;2023-06-05T08:31:09;8.33;;;6.03;;
19905;SDS011;10115;50.906;4.438;2023-06-05T08:33:36;9.37;;;6.33;;
19905;SDS011;10115;50.906;4.438;2023-06-05T08:36:03;9.23;;;6.43;;
19905;SDS011;10115;50.906;4.438;2023-06-05T08:38:30;7.00;;;5.77;;
19905;SDS011;10115;50.906;4.438;2023-06-05T08:41:00;6.40;;;5.80;;
19905;SDS011;10115;50.906;4.438;2023-06-05T08:43:27;8.93;;;6.47;;
19905;SDS011;10115;50.906;4.438;2023-06-05T08:45:53;13.67;;;5.93;;
19905;SDS011;10115;50.906;4.438;2023-06-05T08:48:22;7.50;;;6.40;;
19905;SDS011;10115;50.906;4.438;2023-06-05T08:50:50;8.13;;;6.57;;
19905;SDS011;10115;50.906;4.438;2023-06-05T08:53:17;6.87;;;6.17;;
19905;SDS011;10115;50.906;4.438;2023-06-05T08:55:47;11.60;;;7.47;;
19905;SDS011;10115;50.906;4.438;2023-06-05T08:58:18;6.73;;;5.83;;
19905;SDS011;10115;50.906;4.438;2023-06-05T09:00:44;7.17;;;5.93;;
19905;SDS011;10115;50.906;4.438;2023-06-05T09:03:13;6.33;;;5.73;;
19905;SDS011;10115;50.906;4.438;2023-06-05T09:05:45;10.07;;;5.97;;
19905;SDS011;10115;50.906;4.438;2023-06-05T09:08:12;7.03;;;6.10;;
19905;SDS011;10115;50.906;4.438;2023-06-05T09:10:42;7.80;;;6.30;;
19905;SDS011;10115;50.906;4.438;2023-06-05T09:13:08;7.50;;;6.43;;
19905;SDS011;10115;50.906;4.438;2023-06-05T09:15:34;7.83;;;5.37;;
19905;SDS011;10115;50.906;4.438;2023-06-05T09:20:33;6.70;;;5.97;;
19905;SDS011;10115;50.906;4.438;2023-06-05T09:23:03;10.43;;;6.10;;
19905;SDS011;10115;50.906;4.438;2023-06-05T09:25:46;7.77;;;5.80;;
19905;SDS011;10115;50.906;4.438;2023-06-05T09:28:15;7.43;;;6.10;;
19905;SDS011;10115;50.906;4.438;2023-06-05T09:33:28;8.53;;;6.37;;
19905;SDS011;10115;50.906;4.438;2023-06-05T09:38:58;6.27;;;5.67;;
19905;SDS011;10115;50.906;4.438;2023-06-05T09:41:24;6.30;;;5.53;;
19905;SDS011;10115;50.906;4.438;2023-06-05T09:43:50;7.67;;;5.70;;
19905;SDS011;10115;50.906;4.438;2023-06-05T09:46:16;6.20;;;5.60;;
19905;SDS011;10115;50.906;4.438;2023-06-05T09:48:42;8.37;;;5.53;;
19905;SDS011;10115;50.906;4.438;2023-06-05T09:51:17;6.47;;;4.30;;
19905;SDS011;10115;50.906;4.438;2023-06-05T09:56:22;7.17;;;5.27;;
19905;SDS011;10115;50.906;4.438;2023-06-05T09:58:48;5.10;;;4.60;;
19905;SDS011;10115;50.906;4.438;2023-06-05T10:01:17;6.03;;;4.57;;
19905;SDS011;10115;50.906;4.438;2023-06-05T10:03:51;9.20;;;5.80;;
19905;SDS011;10115;50.906;4.438;2023-06-05T10:06:23;6.23;;;5.13;;
19905;SDS011;10115;50.906;4.438;2023-06-05T10:08:53;6.50;;;5.63;;
19905;SDS011;10115;50.906;4.438;2023-06-05T10:11:21;6.07;;;5.37;;
19905;SDS011;10115;50.906;4.438;2023-06-05T10:13:48;5.60;;;5.10;;
19905;SDS011;10115;50.906;4.438;2023-06-05T10:16:16;6.70;;;5.30;;
19905;SDS011;10115;50.906;4.438;2023-06-05T10:18:45;5.27;;;4.77;;
19905;SDS011;10115;50.906;4.438;2023-06-05T10:21:17;6.53;;;5.40;;
19905;SDS011;10115;50.906;4.438;2023-06-05T10:23:48;5.67;;;5.00;;
19905;SDS011;10115;50.906;4.438;2023-06-05T10:32:07;7.70;;;5.20;;
19905;SDS011;10115;50.906;4.438;2023-06-05T10:38:28;5.67;;;5.13;;
19905;SDS011;10115;50.906;4.438;2023-06-05T10:40:51;8.17;;;5.20;;
19905;SDS011;10115;50.906;4.438;2023-06-05T10:45:54;5.83;;;5.23;;
19905;SDS011;10115;50.906;4.438;2023-06-05T10:48:20;4.50;;;4.10;;
19905;SDS011;10115;50.906;4.438;2023-06-05T10:50:46;6.63;;;4.83;;
19905;SDS011;10115;50.906;4.438;2023-06-05T10:56:07;6.27;;;5.10;;
19905;SDS011;10115;50.906;4.438;2023-06-05T10:58:33;4.30;;;3.90;;
19905;SDS011;10115;50.906;4.438;2023-06-05T11:06:39;9.23;;;4.60;;
19905;SDS011;10115;50.906;4.438;2023-06-05T11:09:21;4.80;;;4.40;;
19905;SDS011;10115;50.906;4.438;2023-06-05T11:11:56;5.83;;;4.43;;
19905;SDS011;10115;50.906;4.438;2023-06-05T11:14:42;5.40;;;4.90;;
19905;SDS011;10115;50.906;4.438;2023-06-05T11:19:57;9.20;;;5.20;;
19905;SDS011;10115;50.906;4.438;2023-06-05T11:22:24;6.40;;;5.43;;
19905;SDS011;10115;50.906;4.438;2023-06-05T11:25:23;8.17;;;4.50;;
19905;SDS011;10115;50.906;4.438;2023-06-05T11:30:30;4.63;;;4.22;;
19905;SDS011;10115;50.906;4.438;2023-06-05T11:33:07;4.65;;;4.07;;
19905;SDS011;10115;50.906;4.438;2023-06-05T11:35:34;7.20;;;4.30;;
19905;SDS011;10115;50.906;4.438;2023-06-05T11:40:36;7.22;;;4.50;;
19905;SDS011;10115;50.906;4.438;2023-06-05T11:43:06;6.05;;;4.18;;
19905;SDS011;10115;50.906;4.438;2023-06-05T11:45:33;6.00;;;5.18;;
19905;SDS011;10115;50.906;4.438;2023-06-05T11:48:13;5.60;;;4.97;;
19905;SDS011;10115;50.906;4.438;2023-06-05T11:50:40;7.25;;;4.30;;
19905;SDS011;10115;50.906;4.438;2023-06-05T11:53:22;8.00;;;4.20;;
19905;SDS011;10115;50.906;4.438;2023-06-05T11:55:50;7.63;;;4.63;;
19905;SDS011;10115;50.906;4.438;2023-06-05T11:58:23;10.35;;;5.18;;
19905;SDS011;10115;50.906;4.438;2023-06-05T12:00:50;4.47;;;4.07;;
19905;SDS011;10115;50.906;4.438;2023-06-05T12:03:17;6.30;;;4.28;;
19905;SDS011;10115;50.906;4.438;2023-06-05T12:05:49;9.82;;;3.90;;
19905;SDS011;10115;50.906;4.438;2023-06-05T12:08:22;7.28;;;4.80;;
19905;SDS011;10115;50.906;4.438;2023-06-05T12:10:52;5.43;;;4.53;;
19905;SDS011;10115;50.906;4.438;2023-06-05T12:13:19;5.47;;;4.40;;
19905;SDS011;10115;50.906;4.438;2023-06-05T12:16:00;7.35;;;4.40;;
19905;SDS011;10115;50.906;4.438;2023-06-05T12:18:35;6.47;;;4.30;;
19905;SDS011;10115;50.906;4.438;2023-06-05T12:21:01;5.70;;;3.90;;
19905;SDS011;10115;50.906;4.438;2023-06-05T12:23:28;4.70;;;3.90;;
19905;SDS011;10115;50.906;4.438;2023-06-05T12:26:00;3.58;;;3.28;;
19905;SDS011;10115;50.906;4.438;2023-06-05T12:28:28;3.58;;;3.38;;
19905;SDS011;10115;50.906;4.438;2023-06-05T12:30:55;4.00;;;3.50;;
19905;SDS011;10115;50.906;4.438;2023-06-05T12:33:21;3.83;;;3.50;;
19905;SDS011;10115;50.906;4.438;2023-06-05T12:36:01;5.22;;;4.15;;
19905;SDS011;10115;50.906;4.438;2023-06-05T12:38:30;6.93;;;4.30;;
19905;SDS011;10115;50.906;4.438;2023-06-05T12:41:02;4.18;;;3.88;;
19905;SDS011;10115;50.906;4.438;2023-06-05T12:43:28;3.63;;;3.40;;
19905;SDS011;10115;50.906;4.438;2023-06-05T12:45:53;3.95;;;3.45;;
19905;SDS011;10115;50.906;4.438;2023-06-05T12:48:20;4.28;;;3.85;;
19905;SDS011;10115;50.906;4.438;2023-06-05T12:50:46;4.32;;;3.65;;
19905;SDS011;10115;50.906;4.438;2023-06-05T12:53:12;4.38;;;3.88;;
19905;SDS011;10115;50.906;4.438;2023-06-05T12:55:38;4.65;;;4.10;;
19905;SDS011;10115;50.906;4.438;2023-06-05T12:58:04;3.50;;;3.30;;
19905;SDS011;10115;50.906;4.438;2023-06-05T13:00:29;3.33;;;3.03;;
19905;SDS011;10115;50.906;4.438;2023-06-05T13:02:55;3.65;;;3.15;;
19905;SDS011;10115;50.906;4.438;2023-06-05T13:05:21;5.20;;;3.25;;
19905;SDS011;10115;50.906;4.438;2023-06-05T13:07:47;3.70;;;3.22;;
19905;SDS011;10115;50.906;4.438;2023-06-05T13:10:14;3.28;;;3.08;;
19905;SDS011;10115;50.906;4.438;2023-06-05T13:12:40;3.00;;;2.70;;
19905;SDS011;10115;50.906;4.438;2023-06-05T13:15:07;3.88;;;3.38;;
19905;SDS011;10115;50.906;4.438;2023-06-05T13:17:33;3.17;;;2.97;;
19905;SDS011;10115;50.906;4.438;2023-06-05T13:20:01;4.57;;;3.22;;
19905;SDS011;10115;50.906;4.438;2023-06-05T13:22:31;3.75;;;3.15;;
19905;SDS011;10115;50.906;4.438;2023-06-05T13:24:57;3.28;;;2.97;;
19905;SDS011;10115;50.906;4.438;2023-06-05T13:27:23;7.47;;;3.25;;
19905;SDS011;10115;50.906;4.438;2023-06-05T13:29:48;2.95;;;2.58;;
19905;SDS011;10115;50.906;4.438;2023-06-05T13:32:14;2.90;;;2.70;;
19905;SDS011;10115;50.906;4.438;2023-06-05T13:34:40;6.78;;;4.32;;
19905;SDS011;10115;50.906;4.438;2023-06-05T13:37:06;5.82;;;3.30;;
19905;SDS011;10115;50.906;4.438;2023-06-05T13:39:31;3.53;;;2.95;;
19905;SDS011;10115;50.906;4.438;2023-06-05T13:41:57;4.80;;;3.90;;
19905;SDS011;10115;50.906;4.438;2023-06-05T13:44:23;3.25;;;3.00;;
19905;SDS011;10115;50.906;4.438;2023-06-05T13:46:48;3.78;;;3.47;;
19905;SDS011;10115;50.906;4.438;2023-06-05T13:49:14;5.95;;;3.83;;
19905;SDS011;10115;50.906;4.438;2023-06-05T13:51:41;4.05;;;3.65;;
19905;SDS011;10115;50.906;4.438;2023-06-05T13:54:06;3.40;;;3.17;;
19905;SDS011;10115;50.906;4.438;2023-06-05T13:56:32;3.50;;;3.25;;
19905;SDS011;10115;50.906;4.438;2023-06-05T13:58:58;3.75;;;3.45;;
19905;SDS011;10115;50.906;4.438;2023-06-05T14:01:24;4.07;;;3.70;;
19905;SDS011;10115;50.906;4.438;2023-06-05T14:03:50;3.58;;;3.28;;
19905;SDS011;10115;50.906;4.438;2023-06-05T14:06:16;4.97;;;3.97;;
19905;SDS011;10115;50.906;4.438;2023-06-05T14:08:42;4.55;;;3.88;;
19905;SDS011;10115;50.906;4.438;2023-06-05T14:11:08;3.83;;;3.53;;
19905;SDS011;10115;50.906;4.438;2023-06-05T14:13:35;3.40;;;3.20;;
19905;SDS011;10115;50.906;4.438;2023-06-05T14:16:01;4.53;;;3.38;;
19905;SDS011;10115;50.906;4.438;2023-06-05T14:18:28;7.03;;;3.72;;
19905;SDS011;10115;50.906;4.438;2023-06-05T14:20:54;3.78;;;3.30;;
19905;SDS011;10115;50.906;4.438;2023-06-05T14:23:20;3.70;;;3.40;;
19905;SDS011;10115;50.906;4.438;2023-06-05T14:25:50;4.50;;;3.08;;
19905;SDS011;10115;50.906;4.438;2023-06-05T14:28:16;2.92;;;2.65;;
19905;SDS011;10115;50.906;4.438;2023-06-05T14:30:42;4.72;;;3.20;;
19905;SDS011;10115;50.906;4.438;2023-06-05T14:33:08;4.05;;;3.55;;
19905;SDS011;10115;50.906;4.438;2023-06-05T14:35:35;3.55;;;3.25;;
19905;SDS011;10115;50.906;4.438;2023-06-05T14:38:01;3.40;;;3.10;;
19905;SDS011;10115;50.906;4.438;2023-06-05T14:40:26;3.05;;;2.55;;
19905;SDS011;10115;50.906;4.438;2023-06-05T14:42:52;3.13;;;2.85;;
19905;SDS011;10115;50.906;4.438;2023-06-05T14:45:19;4.15;;;3.58;;
19905;SDS011;10115;50.906;4.438;2023-06-05T14:47:45;3.63;;;3.10;;
19905;SDS011;10115;50.906;4.438;2023-06-05T14:50:12;3.40;;;3.20;;
19905;SDS011;10115;50.906;4.438;2023-06-05T14:52:38;5.57;;;3.15;;
19905;SDS011;10115;50.906;4.438;2023-06-05T14:55:04;3.70;;;3.33;;
19905;SDS011;10115;50.906;4.438;2023-06-05T14:57:32;5.45;;;3.45;;
19905;SDS011;10115;50.906;4.438;2023-06-05T14:59:59;5.13;;;3.50;;
19905;SDS011;10115;50.906;4.438;2023-06-05T15:02:25;3.50;;;3.20;;
19905;SDS011;10115;50.906;4.438;2023-06-05T15:04:51;7.65;;;2.97;;
19905;SDS011;10115;50.906;4.438;2023-06-05T15:07:18;3.45;;;3.25;;
19905;SDS011;10115;50.906;4.438;2023-06-05T15:09:47;3.50;;;3.20;;
19905;SDS011;10115;50.906;4.438;2023-06-05T15:12:14;6.15;;;2.95;;
19905;SDS011;10115;50.906;4.438;2023-06-05T15:14:40;4.47;;;3.10;;
19905;SDS011;10115;50.906;4.438;2023-06-05T15:17:06;3.63;;;3.33;;
19905;SDS011;10115;50.906;4.438;2023-06-05T15:19:33;3.50;;;3.20;;
19905;SDS011;10115;50.906;4.438;2023-06-05T15:21:59;3.00;;;2.72;;
19905;SDS011;10115;50.906;4.438;2023-06-05T15:24:26;3.45;;;3.15;;
19905;SDS011;10115;50.906;4.438;2023-06-05T15:26:52;8.02;;;3.17;;
19905;SDS011;10115;50.906;4.438;2023-06-05T15:29:18;3.78;;;3.47;;
19905;SDS011;10115;50.906;4.438;2023-06-05T15:31:44;3.72;;;3.42;;